Time;durP1;ratioP1;P1;durP2;ratioP2;P2;SDS_P1;SDS_P2;PMS_P1;PMS_P2;Temp;Humidity;BMP_temperature;BMP_pressure;BME280_temperature;BME280_humidity;BME280_pressure;Samples;Min_cycle;Max_cycle;Signal;HPM_P1;HPM_P2
2022/05/11 00:00:33;;;;;;;7.07;4.60;;;14.70;49.20;;;;;;4962847;28;46324;-61
2022/05/11 00:02:58;;;;;;;13.40;4.60;;;14.60;49.20;;;;;;4961649;28;46445;-61
2022/05/11 00:05:24;;;;;;;7.00;4.53;;;14.60;49.40;;;;;;4963368;28;46396;-62
2022/05/11 00:07:50;;;;;;;7.97;5.43;;;14.50;49.40;;;;;;4963258;28;46270;-61
2022/05/11 00:10:15;;;;;;;8.23;5.00;;;14.50;49.40;;;;;;4962451;28;45892;-61
2022/05/11 00:12:45;;;;;;;8.50;5.30;;;14.50;49.60;;;;;;4963100;28;47167;-61
2022/05/11 00:15:13;;;;;;;8.40;5.23;;;14.50;49.70;;;;;;4961148;28;46420;-61
2022/05/11 00:17:39;;;;;;;7.10;4.93;;;14.50;49.80;;;;;;4963094;28;46238;-61
2022/05/11 00:20:06;;;;;;;7.47;5.03;;;14.40;49.70;;;;;;4962329;28;46277;-61
2022/05/11 00:22:33;;;;;;;23.87;5.60;;;14.40;49.60;;;;;;4960610;28;47091;-61
2022/05/11 00:24:59;;;;;;;9.70;4.90;;;14.40;49.70;;;;;;4962470;28;46423;-61
2022/05/11 00:27:25;;;;;;;12.10;4.60;;;14.40;49.70;;;;;;4961875;28;46324;-61
2022/05/11 00:29:50;;;;;;;7.60;5.37;;;14.40;49.80;;;;;;4962165;28;46368;-62
2022/05/11 00:32:16;;;;;;;6.57;5.00;;;14.50;49.60;;;;;;4962616;28;46340;-62
2022/05/11 00:34:42;;;;;;;8.87;5.40;;;14.50;49.50;;;;;;4962391;28;46447;-61
2022/05/11 00:37:07;;;;;;;8.27;5.50;;;14.50;49.50;;;;;;4962224;28;46438;-61
2022/05/11 00:39:35;;;;;;;8.87;5.70;;;14.50;49.50;;;;;;4962132;28;46343;-61
2022/05/11 00:42:04;;;;;;;8.00;4.93;;;14.50;49.60;;;;;;4960087;28;47161;-62
2022/05/11 00:44:30;;;;;;;9.40;5.10;;;14.40;49.60;;;;;;4961667;28;45818;-61
2022/05/11 00:47:03;;;;;;;6.17;5.10;;;14.40;49.80;;;;;;4962673;28;46479;-61
2022/05/11 00:49:38;;;;;;;9.10;5.67;;;14.30;49.90;;;;;;4962018;28;46427;-61
2022/05/11 00:52:34;;;;;;;7.97;5.27;;;14.30;50.00;;;;;;4958878;28;47271;-62
2022/05/11 00:55:06;;;;;;;11.30;6.30;;;14.30;50.20;;;;;;4959777;28;45986;-61
2022/05/11 00:57:51;;;;;;;7.83;5.30;;;14.30;50.50;;;;;;4959428;28;46468;-62
2022/05/11 01:00:18;;;;;;;8.27;5.37;;;14.30;50.10;;;;;;4956876;28;46345;-62
2022/05/11 01:02:47;;;;;;;7.40;5.27;;;14.30;50.20;;;;;;4960843;28;46519;-61
2022/05/11 01:05:13;;;;;;;16.87;6.60;;;14.30;50.20;;;;;;4961037;28;46470;-62
2022/05/11 01:07:38;;;;;;;7.60;5.10;;;14.30;50.30;;;;;;4961308;28;46393;-61
2022/05/11 01:10:06;;;;;;;9.50;5.70;;;14.30;50.50;;;;;;4960066;28;46354;-62
2022/05/11 01:12:37;;;;;;;8.57;5.00;;;14.30;50.50;;;;;;4961728;28;46553;-61
2022/05/11 01:15:04;;;;;;;7.00;4.70;;;14.20;50.60;;;;;;4959874;28;46344;-60
2022/05/11 01:17:36;;;;;;;9.70;4.60;;;14.20;50.60;;;;;;4963103;28;45819;-61
2022/05/11 01:20:03;;;;;;;8.23;5.70;;;14.30;50.70;;;;;;4962260;28;46372;-62
2022/05/11 01:22:35;;;;;;;8.13;5.20;;;14.30;50.70;;;;;;4961961;28;46266;-60
2022/05/11 01:25:04;;;;;;;9.13;5.00;;;14.30;50.60;;;;;;4961327;28;46436;-61
2022/05/11 01:27:36;;;;;;;11.13;5.27;;;14.30;50.60;;;;;;4960798;28;46320;-62
2022/05/11 01:30:16;;;;;;;8.27;5.40;;;14.30;50.60;;;;;;4961247;28;46472;-63
2022/05/11 01:32:45;;;;;;;7.93;4.70;;;14.30;50.60;;;;;;4961771;28;47070;-61
2022/05/11 01:35:22;;;;;;;8.70;5.80;;;14.30;50.60;;;;;;4962912;28;46509;-62
2022/05/11 01:38:12;;;;;;;8.40;5.20;;;14.30;50.60;;;;;;4961208;28;46398;-62
2022/05/11 01:40:37;;;;;;;6.50;5.17;;;14.40;50.70;;;;;;4960959;28;46317;-61
2022/05/11 01:43:03;;;;;;;9.13;5.20;;;14.40;50.50;;;;;;4961130;28;46986;-62
2022/05/11 01:45:29;;;;;;;9.23;5.17;;;14.40;50.50;;;;;;4961096;28;46387;-61
2022/05/11 01:47:55;;;;;;;7.90;5.70;;;14.40;50.50;;;;;;4960762;28;46426;-62
2022/05/11 01:50:21;;;;;;;8.03;4.87;;;14.50;50.50;;;;;;4960100;28;46691;-61
2022/05/11 01:52:47;;;;;;;11.80;5.27;;;14.50;50.60;;;;;;4960647;28;46348;-61
2022/05/11 01:55:12;;;;;;;12.20;5.40;;;14.50;50.60;;;;;;4959980;28;46502;-61
2022/05/11 01:57:39;;;;;;;9.27;5.23;;;14.50;50.60;;;;;;4960475;28;46323;-62
2022/05/11 02:00:06;;;;;;;10.73;5.10;;;14.50;50.60;;;;;;4959073;28;46404;-62
2022/05/11 02:02:32;;;;;;;9.40;5.50;;;14.50;50.50;;;;;;4960001;28;47033;-61
2022/05/11 02:07:51;;;;;;;10.53;5.47;;;14.50;50.60;;;;;;4956236;28;46656;-61
2022/05/11 02:10:22;;;;;;;10.37;5.20;;;14.50;50.80;;;;;;4957514;28;46343;-62
2022/05/11 02:12:48;;;;;;;8.10;5.63;;;14.40;50.80;;;;;;4954848;28;46602;-63
2022/05/11 02:15:14;;;;;;;11.13;5.33;;;14.40;51.10;;;;;;4954019;28;46383;-61
2022/05/11 02:17:41;;;;;;;7.83;5.50;;;14.40;51.20;;;;;;4954680;28;46553;-61
2022/05/11 02:20:07;;;;;;;7.00;5.00;;;14.40;51.30;;;;;;4956819;28;46225;-62
2022/05/11 02:22:33;;;;;;;7.67;5.20;;;14.40;51.30;;;;;;4955523;28;48349;-62
2022/05/11 02:24:58;;;;;;;9.43;6.43;;;14.40;51.30;;;;;;4957104;28;46440;-61
2022/05/11 02:27:24;;;;;;;9.10;7.20;;;14.40;51.30;;;;;;4960302;28;46716;-61
2022/05/11 02:29:50;;;;;;;8.13;6.33;;;14.50;51.50;;;;;;4960472;28;46592;-61
2022/05/11 02:32:15;;;;;;;15.73;9.80;;;14.50;51.10;;;;;;4960110;28;46966;-62
2022/05/11 02:37:25;;;;;;;15.63;8.40;;;14.50;51.00;;;;;;4961881;28;46610;-61
2022/05/11 02:39:50;;;;;;;14.60;7.93;;;14.60;50.80;;;;;;4960059;28;46474;-61
2022/05/11 02:42:18;;;;;;;14.60;7.40;;;14.70;50.60;;;;;;4959891;28;46512;-61
2022/05/11 02:44:45;;;;;;;10.37;6.73;;;14.70;50.50;;;;;;4959855;28;46419;-62
2022/05/11 02:47:10;;;;;;;12.20;7.33;;;14.80;50.50;;;;;;4962982;28;46307;-62
2022/05/11 02:49:36;;;;;;;8.20;6.40;;;14.70;50.50;;;;;;4961406;28;46368;-61
2022/05/11 02:52:01;;;;;;;9.00;6.67;;;14.70;50.70;;;;;;4963354;28;47162;-60
2022/05/11 02:54:27;;;;;;;13.97;5.90;;;14.60;50.80;;;;;;4963020;28;46576;-61
2022/05/11 02:56:53;;;;;;;8.53;5.87;;;14.60;51.00;;;;;;4963867;28;46344;-62
2022/05/11 02:59:18;;;;;;;8.13;5.30;;;14.40;51.30;;;;;;4962604;28;46356;-61
2022/05/11 03:01:44;;;;;;;10.60;5.00;;;14.30;51.60;;;;;;4962507;28;47235;-62
2022/05/11 03:04:09;;;;;;;6.80;5.13;;;14.30;51.90;;;;;;4963267;28;46311;-63
2022/05/11 03:06:35;;;;;;;8.20;5.53;;;14.30;52.20;;;;;;4963040;28;46684;-62
2022/05/11 03:09:00;;;;;;;7.80;5.77;;;14.10;52.40;;;;;;4962906;28;46522;-61
2022/05/11 03:11:26;;;;;;;12.23;5.80;;;14.00;52.70;;;;;;4963537;28;47317;-62
2022/05/11 03:13:52;;;;;;;8.40;4.90;;;14.00;53.10;;;;;;4962852;28;46383;-62
2022/05/11 03:16:17;;;;;;;8.60;5.63;;;13.90;53.20;;;;;;4963742;28;46414;-61
2022/05/11 03:18:43;;;;;;;6.40;4.97;;;13.80;53.10;;;;;;4960830;28;46417;-62
2022/05/11 03:21:08;;;;;;;9.20;4.87;;;13.80;53.40;;;;;;4963298;28;46443;-64
2022/05/11 03:23:34;;;;;;;7.33;4.80;;;13.70;53.60;;;;;;4962986;28;46324;-62
2022/05/11 03:26:00;;;;;;;8.97;4.90;;;13.70;53.80;;;;;;4963554;28;46308;-61
2022/05/11 03:28:26;;;;;;;7.83;4.83;;;13.60;54.00;;;;;;4962262;28;46280;-62
2022/05/11 03:30:51;;;;;;;7.00;4.60;;;13.60;54.30;;;;;;4963463;28;46497;-61
2022/05/11 03:36:01;;;;;;;6.60;4.40;;;13.60;54.80;;;;;;4963486;28;46253;-62
2022/05/11 03:38:27;;;;;;;8.23;5.40;;;13.60;54.60;;;;;;4961651;28;46503;-61
2022/05/11 03:40:52;;;;;;;10.10;5.80;;;13.60;54.70;;;;;;4963103;28;47283;-61
2022/05/11 03:43:19;;;;;;;11.23;5.03;;;13.50;54.60;;;;;;4962807;28;46468;-62
2022/05/11 03:45:45;;;;;;;8.17;5.17;;;13.60;54.70;;;;;;4963604;28;46387;-61
2022/05/11 03:48:11;;;;;;;8.73;5.23;;;13.50;54.80;;;;;;4963237;28;46683;-61
2022/05/11 03:50:38;;;;;;;8.10;5.50;;;13.60;55.00;;;;;;4962933;28;46418;-62
2022/05/11 03:53:03;;;;;;;8.03;5.37;;;13.50;54.80;;;;;;4962788;28;45848;-61
2022/05/11 03:55:29;;;;;;;10.13;4.40;;;13.50;54.90;;;;;;4962768;28;46376;-62
2022/05/11 03:57:55;;;;;;;10.90;4.83;;;13.60;54.90;;;;;;4963632;28;46338;-62
2022/05/11 04:00:23;;;;;;;6.90;5.00;;;13.60;54.80;;;;;;4961845;28;46348;-62
2022/05/11 04:02:50;;;;;;;8.63;4.70;;;13.70;54.50;;;;;;4962922;28;46292;-62
2022/05/11 04:05:17;;;;;;;7.43;4.47;;;13.70;54.20;;;;;;4963130;28;46474;-61
2022/05/11 04:07:43;;;;;;;6.70;3.70;;;13.80;53.80;;;;;;4962567;28;46501;-62
2022/05/11 04:10:11;;;;;;;7.10;4.63;;;13.90;53.70;;;;;;4962416;28;46416;-61
2022/05/11 04:12:37;;;;;;;6.40;4.90;;;14.00;53.60;;;;;;4962141;28;46737;-61
2022/05/11 04:15:04;;;;;;;7.70;5.73;;;14.00;53.30;;;;;;4962705;28;46272;-62
2022/05/11 04:17:30;;;;;;;9.03;6.20;;;14.20;53.00;;;;;;4963023;28;46571;-61
2022/05/11 04:19:56;;;;;;;8.20;5.60;;;14.30;53.00;;;;;;4962086;28;48115;-62
2022/05/11 04:22:21;;;;;;;7.13;4.53;;;14.40;52.70;;;;;;4962671;28;46217;-62
2022/05/11 04:24:47;;;;;;;6.10;4.27;;;14.50;53.60;;;;;;4963121;28;46424;-62
2022/05/11 04:27:13;;;;;;;6.63;4.07;;;14.60;52.10;;;;;;4962724;28;46640;-62
2022/05/11 04:29:39;;;;;;;6.73;4.57;;;14.70;51.70;;;;;;4960654;28;47130;-65
2022/05/11 04:32:07;;;;;;;9.87;4.10;;;14.90;51.60;;;;;;4962876;28;46605;-60
2022/05/11 04:34:34;;;;;;;6.30;4.67;;;15.00;51.20;;;;;;4962084;28;46391;-61
2022/05/11 04:36:59;;;;;;;10.00;3.93;;;15.20;50.90;;;;;;4962360;28;46506;-61
2022/05/11 04:39:25;;;;;;;5.40;3.70;;;15.40;50.60;;;;;;4961924;28;48070;-61
2022/05/11 04:41:51;;;;;;;7.90;4.43;;;15.60;50.20;;;;;;4959697;28;46386;-61
2022/05/11 04:44:17;;;;;;;8.47;4.03;;;15.80;50.00;;;;;;4954739;28;46709;-61
2022/05/11 04:46:42;;;;;;;7.20;4.30;;;15.90;49.50;;;;;;4959413;28;47052;-61
2022/05/11 04:49:19;;;;;;;7.63;4.93;;;16.10;49.30;;;;;;4962016;28;46419;-61
2022/05/11 04:51:57;;;;;;;7.90;4.37;;;16.40;48.80;;;;;;4962417;28;46375;-60
2022/05/11 04:54:22;;;;;;;8.50;3.93;;;17.00;47.90;;;;;;4961668;28;46221;-62
2022/05/11 04:56:48;;;;;;;7.33;3.70;;;16.90;47.70;;;;;;4962918;28;46445;-62
2022/05/11 04:59:14;;;;;;;5.47;3.80;;;16.90;47.70;;;;;;4960494;28;46348;-62
2022/05/11 05:01:40;;;;;;;5.50;3.93;;;17.60;47.40;;;;;;4961516;28;46560;-62
2022/05/11 05:04:06;;;;;;;10.33;3.80;;;18.60;46.40;;;;;;4964126;28;46421;-63
2022/05/11 05:06:33;;;;;;;5.30;3.83;;;19.80;44.40;;;;;;4962613;28;46327;-62
2022/05/11 05:09:00;;;;;;;6.83;3.90;;;20.50;42.80;;;;;;4961230;28;46402;-61
2022/05/11 05:11:26;;;;;;;7.67;4.20;;;20.60;42.00;;;;;;4960857;28;46237;-63
2022/05/11 05:13:51;;;;;;;6.30;4.00;;;21.10;41.60;;;;;;4962378;28;46431;-60
2022/05/11 05:16:17;;;;;;;5.30;3.33;;;21.70;40.00;;;;;;4961946;28;46360;-62
2022/05/11 05:18:42;;;;;;;6.50;3.53;;;22.40;38.70;;;;;;4960810;28;46922;-61
2022/05/11 05:21:08;;;;;;;8.43;3.77;;;23.10;36.90;;;;;;4962239;28;46319;-61
2022/05/11 05:23:35;;;;;;;6.90;3.27;;;23.90;35.20;;;;;;4961802;28;46498;-61
2022/05/11 05:26:02;;;;;;;7.10;3.30;;;24.40;33.40;;;;;;4961871;28;46441;-61
2022/05/11 05:31:18;;;;;;;4.40;3.30;;;25.30;30.00;;;;;;4959778;28;46435;-61
2022/05/11 05:33:44;;;;;;;5.57;3.40;;;25.80;28.80;;;;;;4960946;28;46372;-60
2022/05/11 05:36:11;;;;;;;6.23;3.43;;;26.30;27.60;;;;;;4961869;28;46633;-61
2022/05/11 05:38:38;;;;;;;14.40;3.40;;;26.70;26.90;;;;;;4961302;28;46469;-60
2022/05/11 05:41:12;;;;;;;7.73;2.90;;;27.00;26.20;;;;;;4960458;28;46364;-60
2022/05/11 05:43:38;;;;;;;9.00;3.27;;;27.30;25.30;;;;;;4961063;28;46407;-60
2022/05/11 05:46:04;;;;;;;4.90;3.27;;;27.60;24.70;;;;;;4961688;28;46778;-60
2022/05/11 05:48:30;;;;;;;7.90;3.47;;;27.60;24.30;;;;;;4960552;28;46399;-61
2022/05/11 05:51:10;;;;;;;4.33;3.20;;;27.50;23.60;;;;;;4961633;28;46700;-59
2022/05/11 05:53:36;;;;;;;4.90;2.80;;;27.50;23.00;;;;;;4962266;28;46382;-60
2022/05/11 05:56:03;;;;;;;6.27;3.30;;;27.50;23.40;;;;;;4968734;28;46503;-60
2022/05/11 05:58:28;;;;;;;4.90;3.00;;;27.80;23.00;;;;;;4963517;28;46344;-60
2022/05/11 06:00:54;;;;;;;6.10;3.40;;;27.90;22.90;;;;;;4963720;28;46522;-61
2022/05/11 06:03:22;;;;;;;4.63;3.20;;;28.20;22.30;;;;;;4967920;28;46356;-60
2022/05/11 06:05:48;;;;;;;5.57;3.23;;;28.50;21.70;;;;;;4967983;28;46332;-60
2022/05/11 06:08:16;;;;;;;7.40;3.63;;;28.80;21.20;;;;;;4967447;28;47109;-60
2022/05/11 06:10:43;;;;;;;6.93;3.00;;;29.10;20.90;;;;;;4967641;28;46446;-59
2022/05/11 06:13:09;;;;;;;6.50;2.87;;;29.40;20.30;;;;;;4968022;28;46690;-60
2022/05/11 06:15:38;;;;;;;5.13;3.10;;;29.60;19.90;;;;;;4967764;28;46455;-60
2022/05/11 06:18:05;;;;;;;5.63;3.50;;;29.20;20.80;;;;;;4967739;28;46399;-60
2022/05/11 06:20:31;;;;;;;4.73;3.37;;;27.90;23.50;;;;;;4967201;28;45832;-60
2022/05/11 06:22:57;;;;;;;10.90;3.13;;;26.80;25.60;;;;;;4966786;28;46628;-60
2022/05/11 06:25:23;;;;;;;4.17;2.73;;;26.10;26.50;;;;;;4962588;28;46410;-60
2022/05/11 06:27:49;;;;;;;6.43;2.90;;;25.80;27.10;;;;;;4959203;28;46292;-59
2022/05/11 06:30:15;;;;;;;5.80;3.30;;;26.50;24.70;;;;;;4963024;28;45951;-60
2022/05/11 06:32:41;;;;;;;5.30;3.23;;;27.50;22.50;;;;;;4961713;28;46332;-61
2022/05/11 06:35:07;;;;;;;15.40;3.87;;;28.00;21.10;;;;;;4966236;28;46170;-61
2022/05/11 06:37:33;;;;;;;6.50;3.90;;;28.20;20.50;;;;;;4966082;28;47757;-59
2022/05/11 06:39:59;;;;;;;8.80;3.40;;;28.40;19.70;;;;;;4964941;28;46598;-60
2022/05/11 06:42:25;;;;;;;5.80;3.50;;;28.50;19.60;;;;;;4966315;28;46449;-60
2022/05/11 06:44:51;;;;;;;5.40;2.70;;;28.20;20.50;;;;;;4964511;28;46428;-60
2022/05/11 06:47:20;;;;;;;4.60;3.30;;;27.60;22.10;;;;;;4966076;28;47250;-60
2022/05/11 06:49:46;;;;;;;5.53;3.43;;;26.80;24.10;;;;;;4968044;28;46319;-60
2022/05/11 06:52:11;;;;;;;5.83;3.50;;;26.10;25.90;;;;;;4966570;28;46439;-62
2022/05/11 07:00:06;;;;;;;6.27;3.47;;;25.10;28.30;;;;;;4963522;28;46442;-61
2022/05/11 07:02:34;;;;;;;6.47;3.63;;;24.90;28.30;;;;;;4965504;28;46684;-62
2022/05/11 07:05:00;;;;;;;7.40;3.40;;;24.80;28.50;;;;;;4964311;28;46442;-62
2022/05/11 07:07:25;;;;;;;5.30;3.60;;;24.90;28.50;;;;;;4964366;28;48252;-62
2022/05/11 07:09:51;;;;;;;7.37;3.60;;;24.80;28.50;;;;;;4964511;28;46724;-62
2022/05/11 07:12:59;;;;;;;8.00;3.70;;;24.80;28.70;;;;;;4963987;28;46482;-62
2022/05/11 07:15:08;;;;;;;9.40;3.30;;;24.60;29.00;;;;;;4954946;28;46465;-62
2022/05/11 07:17:48;;;;;;;8.90;3.70;;;24.40;29.10;;;;;;4960500;28;46986;-59
2022/05/11 07:20:17;;;;;;;8.03;3.90;;;24.40;29.50;;;;;;4960147;28;46542;-62
2022/05/11 07:22:42;;;;;;;5.73;3.90;;;24.20;29.30;;;;;;4957828;28;46408;-62
2022/05/11 07:25:10;;;;;;;7.20;4.17;;;24.20;29.50;;;;;;4962090;28;46443;-61
2022/05/11 07:27:36;;;;;;;8.23;3.77;;;24.10;29.80;;;;;;4961800;28;46391;-61
2022/05/11 07:30:04;;;;;;;10.40;4.00;;;24.00;30.00;;;;;;4961230;28;46389;-62
2022/05/11 07:32:30;;;;;;;8.40;3.80;;;24.00;30.50;;;;;;4962138;28;46573;-61
2022/05/11 07:34:55;;;;;;;6.43;4.43;;;23.90;30.70;;;;;;4961096;28;46462;-61
2022/05/11 07:37:21;;;;;;;7.93;4.20;;;24.00;30.80;;;;;;4961670;28;46409;-61
2022/05/11 07:39:47;;;;;;;8.83;4.97;;;23.80;30.70;;;;;;4960868;28;46464;-61
2022/05/11 07:42:13;;;;;;;9.90;4.67;;;23.70;31.20;;;;;;4961554;28;46593;-61
2022/05/11 07:44:39;;;;;;;6.33;4.90;;;23.80;31.40;;;;;;4960235;28;46612;-61
2022/05/11 07:47:05;;;;;;;7.13;4.27;;;23.90;31.40;;;;;;4961303;28;46419;-61
2022/05/11 07:49:30;;;;;;;7.97;4.03;;;24.00;31.20;;;;;;4960671;28;46508;-61
2022/05/11 07:51:56;;;;;;;8.20;4.77;;;24.10;31.50;;;;;;4961074;28;46419;-62
2022/05/11 07:54:21;;;;;;;7.40;4.43;;;24.00;32.20;;;;;;4959350;28;46480;-61
2022/05/11 08:02:17;;;;;;;6.83;4.27;;;24.30;31.90;;;;;;4961348;28;46810;-61
2022/05/11 08:04:42;;;;;;;7.80;4.50;;;24.20;31.60;;;;;;4960478;28;47028;-61
2022/05/11 08:07:10;;;;;;;6.77;4.77;;;24.10;32.20;;;;;;4961241;28;47540;-62
2022/05/11 08:09:36;;;;;;;8.30;4.40;;;24.20;32.40;;;;;;4960288;28;46581;-61
2022/05/11 08:12:02;;;;;;;10.60;4.93;;;24.00;32.90;;;;;;4961683;28;46395;-61
2022/05/11 08:14:27;;;;;;;6.80;4.00;;;24.00;32.70;;;;;;4960490;28;46769;-62
2022/05/11 08:16:53;;;;;;;8.47;3.93;;;24.10;32.40;;;;;;4958465;28;46330;-61
2022/05/11 08:19:21;;;;;;;7.13;4.50;;;24.20;32.00;;;;;;4960745;28;46344;-62
2022/05/11 08:21:48;;;;;;;7.23;4.27;;;24.30;31.70;;;;;;4956708;28;46418;-61
2022/05/11 08:24:14;;;;;;;9.47;4.40;;;24.50;31.40;;;;;;4959304;28;46299;-60
2022/05/11 08:26:40;;;;;;;5.63;3.90;;;24.50;31.30;;;;;;4960848;28;46332;-61
2022/05/11 08:29:06;;;;;;;4.47;3.03;;;24.50;31.10;;;;;;4961049;28;46427;-63
2022/05/11 08:34:24;;;;;;;7.00;3.30;;;24.70;30.30;;;;;;4947038;28;46649;-62
2022/05/11 08:36:49;;;;;;;12.60;4.20;;;24.80;30.00;;;;;;4958638;28;47020;-62
2022/05/11 08:39:15;;;;;;;8.77;4.07;;;24.80;29.90;;;;;;4957225;28;46689;-62
2022/05/11 08:41:51;;;;;;;9.53;3.53;;;24.90;29.90;;;;;;4961103;28;46395;-62
2022/05/11 08:44:43;;;;;;;5.83;4.00;;;24.90;29.70;;;;;;4960642;28;46467;-62
2022/05/11 08:47:16;;;;;;;5.43;3.90;;;24.80;30.10;;;;;;4956310;28;46393;-62
2022/05/11 08:50:09;;;;;;;7.40;3.87;;;24.80;30.10;;;;;;4960123;28;46434;-61
2022/05/11 08:52:35;;;;;;;6.00;4.00;;;25.00;30.00;;;;;;4960636;28;46616;-61
2022/05/11 08:55:21;;;;;;;7.60;4.13;;;25.00;29.80;;;;;;4961118;28;46214;-60
2022/05/11 08:57:49;;;;;;;10.83;4.17;;;25.00;29.70;;;;;;4958728;28;46329;-60
2022/05/11 09:00:18;;;;;;;11.63;4.67;;;25.20;29.80;;;;;;4960431;28;46720;-61
2022/05/11 09:02:43;;;;;;;11.07;3.90;;;25.00;29.90;;;;;;4960302;28;46435;-60
2022/05/11 09:05:11;;;;;;;8.70;3.83;;;24.50;30.50;;;;;;4960317;28;46768;-61
2022/05/11 09:07:40;;;;;;;8.33;3.87;;;24.10;31.00;;;;;;4960052;28;46436;-60
2022/05/11 09:10:08;;;;;;;5.80;3.30;;;24.10;31.00;;;;;;4958552;28;46494;-61
2022/05/11 09:12:34;;;;;;;5.70;3.87;;;24.10;30.80;;;;;;4958654;28;46364;-62
2022/05/11 09:15:03;;;;;;;9.43;3.83;;;23.90;30.50;;;;;;4958578;28;46570;-61
2022/05/11 09:17:32;;;;;;;6.80;3.43;;;24.10;30.50;;;;;;4958593;28;46191;-61
2022/05/11 09:20:12;;;;;;;5.00;3.40;;;24.30;30.20;;;;;;4958309;28;46498;-60
2022/05/11 09:23:01;;;;;;;4.73;3.00;;;24.40;29.90;;;;;;4956733;28;46427;-61
2022/05/11 09:25:34;;;;;;;6.07;3.77;;;24.70;29.40;;;;;;4958928;28;46849;-61
2022/05/11 09:28:13;;;;;;;6.53;3.03;;;24.90;28.60;;;;;;4959807;28;46370;-60
2022/05/11 09:30:41;;;;;;;7.30;3.20;;;24.80;27.50;;;;;;4957325;28;46260;-61
2022/05/11 09:33:22;;;;;;;3.50;2.50;;;24.70;27.90;;;;;;4956100;28;46487;-61
2022/05/11 09:35:48;;;;;;;6.10;3.30;;;25.00;27.70;;;;;;4957892;28;46375;-60
2022/05/11 09:38:16;;;;;;;5.13;3.10;;;25.10;27.20;;;;;;4958361;28;46518;-63
2022/05/11 09:41:00;;;;;;;24.33;2.90;;;25.20;26.70;;;;;;4957781;28;46683;-62
2022/05/11 09:43:46;;;;;;;3.83;3.13;;;25.20;26.10;;;;;;4957468;28;46520;-62
2022/05/11 09:46:30;;;;;;;4.63;3.30;;;25.30;26.10;;;;;;4960310;28;46443;-63
2022/05/11 09:49:06;;;;;;;11.30;3.33;;;25.30;26.10;;;;;;4959223;28;46398;-63
2022/05/11 09:51:38;;;;;;;10.53;3.40;;;25.50;26.20;;;;;;4959933;28;46414;-62
2022/05/11 09:54:25;;;;;;;5.50;3.10;;;25.50;26.20;;;;;;4957087;28;46732;-62
2022/05/11 09:57:09;;;;;;;6.43;3.30;;;25.50;26.20;;;;;;4958980;28;46470;-62
2022/05/11 09:59:38;;;;;;;8.10;3.73;;;25.60;25.70;;;;;;4957292;28;46513;-63
2022/05/11 10:02:31;;;;;;;5.03;3.60;;;25.40;26.20;;;;;;4960021;28;45825;-63
2022/05/11 10:05:09;;;;;;;4.57;3.57;;;25.20;26.10;;;;;;4959752;28;46534;-61
2022/05/11 10:07:45;;;;;;;8.17;3.10;;;25.30;26.10;;;;;;4960933;28;46356;-61
2022/05/11 10:10:17;;;;;;;8.50;3.60;;;25.40;26.20;;;;;;4957726;28;47402;-62
2022/05/11 10:12:46;;;;;;;4.50;3.10;;;25.50;26.20;;;;;;4954054;28;46477;-66
2022/05/11 10:24:06;;;;;;;4.83;3.10;;;25.20;26.60;;;;;;4957007;28;46359;-62
2022/05/11 10:27:11;;;;;;;5.73;3.60;;;25.40;26.20;;;;;;4960640;28;46361;-63
2022/05/11 10:29:40;;;;;;;6.90;3.50;;;25.50;26.20;;;;;;4938312;28;46555;-63
2022/05/11 10:32:20;;;;;;;7.50;3.90;;;25.50;26.20;;;;;;4959918;28;48364;-63
2022/05/11 10:35:01;;;;;;;5.40;3.10;;;25.50;26.20;;;;;;4958917;28;45897;-61
2022/05/11 10:38:00;;;;;;;6.77;3.27;;;25.60;26.30;;;;;;4960631;28;46386;-62
2022/05/11 10:40:39;;;;;;;7.90;3.17;;;25.70;26.30;;;;;;4958854;28;46368;-62
2022/05/11 10:43:50;;;;;;;4.40;2.73;;;25.70;26.30;;;;;;4959227;28;47026;-61
2022/05/11 10:46:23;;;;;;;4.83;2.70;;;25.60;26.30;;;;;;4937127;28;46513;-63
2022/05/11 10:49:20;;;;;;;8.20;3.73;;;25.80;26.40;;;;;;4941196;28;45912;-62
2022/05/11 10:52:00;;;;;;;4.80;3.03;;;25.50;26.20;;;;;;4955166;28;45971;-61
2022/05/11 10:55:09;;;;;;;11.50;3.10;;;25.60;26.30;;;;;;4962292;28;48340;-62
2022/05/11 10:57:43;;;;;;;7.40;3.47;;;25.70;26.30;;;;;;4961685;28;46623;-61
2022/05/11 11:00:13;;;;;;;5.77;2.93;;;25.60;26.30;;;;;;4960183;28;46426;-62
2022/05/11 11:03:16;;;;;;;7.43;3.47;;;25.70;26.30;;;;;;4962457;28;46619;-61
2022/05/11 11:09:05;;;;;;;6.93;3.17;;;25.60;26.30;;;;;;4960997;28;46411;-63
2022/05/11 11:11:43;;;;;;;4.87;3.00;;;25.60;26.30;;;;;;4958218;28;46609;-63
2022/05/11 11:14:10;;;;;;;4.43;2.90;;;25.80;26.50;;;;;;4958404;28;46493;-62
2022/05/11 11:16:39;;;;;;;5.80;3.07;;;25.90;25.40;;;;;;4960276;28;46536;-64
2022/05/11 11:19:07;;;;;;;5.93;3.33;;;26.00;25.80;;;;;;4955794;28;46463;-60
2022/05/11 11:21:33;;;;;;;7.30;2.80;;;26.10;25.40;;;;;;4959938;28;46384;-62
2022/05/11 11:24:12;;;;;;;8.60;2.93;;;26.20;25.00;;;;;;4960215;28;46061;-62
2022/05/11 11:26:45;;;;;;;5.00;2.90;;;25.90;24.20;;;;;;4956828;28;46471;-62
2022/05/11 11:29:11;;;;;;;6.93;2.67;;;26.00;24.50;;;;;;4959923;28;46399;-62
2022/05/11 11:31:56;;;;;;;7.30;2.53;;;26.10;24.50;;;;;;4962190;28;46404;-63
2022/05/11 11:34:27;;;;;;;4.80;2.80;;;26.10;24.10;;;;;;4962334;28;46694;-62
2022/05/11 11:36:53;;;;;;;3.57;2.60;;;26.10;24.60;;;;;;4962548;28;47480;-62
2022/05/11 11:39:44;;;;;;;5.33;2.70;;;26.10;24.60;;;;;;4961826;28;46498;-62
2022/05/11 11:42:11;;;;;;;5.90;2.73;;;26.00;24.30;;;;;;4961614;28;46415;-62
2022/05/11 11:44:39;;;;;;;8.33;2.60;;;26.10;24.30;;;;;;4960544;28;46587;-62
2022/05/11 11:47:40;;;;;;;5.50;2.60;;;25.90;23.50;;;;;;4959263;28;47106;-61
2022/05/11 11:50:12;;;;;;;3.97;2.60;;;25.80;23.60;;;;;;4947454;28;46295;-62
2022/05/11 11:52:43;;;;;;;4.50;2.70;;;25.60;24.40;;;;;;4957190;28;46367;-61
2022/05/11 11:55:18;;;;;;;4.90;2.93;;;25.80;24.60;;;;;;4952473;28;46550;-62
2022/05/11 11:57:48;;;;;;;6.00;3.20;;;25.90;24.10;;;;;;4958077;28;46611;-62
2022/05/11 12:00:28;;;;;;;4.03;2.67;;;26.10;23.80;;;;;;4954850;28;46458;-62
2022/05/11 12:02:55;;;;;;;5.63;2.57;;;26.10;22.90;;;;;;4958730;28;46640;-62
2022/05/11 12:05:24;;;;;;;3.80;2.60;;;26.00;23.00;;;;;;4957402;28;46424;-61
2022/05/11 12:16:53;;;;;;;3.13;2.13;;;25.90;22.60;;;;;;4955671;28;45771;-62
2022/05/11 12:19:49;;;;;;;11.20;3.10;;;25.90;22.50;;;;;;4955736;28;47400;-63
2022/05/11 12:22:22;;;;;;;4.40;2.60;;;26.00;22.90;;;;;;4947732;28;46424;-61
2022/05/11 12:25:00;;;;;;;7.00;2.50;;;26.10;22.10;;;;;;4955131;28;46459;-60
2022/05/11 12:27:34;;;;;;;8.63;2.77;;;26.20;21.20;;;;;;4960333;28;46394;-60
2022/05/11 12:30:04;;;;;;;4.27;2.60;;;26.30;21.50;;;;;;4956191;28;47185;-60
2022/05/11 12:32:35;;;;;;;11.43;2.73;;;26.50;21.80;;;;;;4957205;28;46459;-61
2022/05/11 12:35:23;;;;;;;8.77;2.70;;;26.60;21.10;;;;;;4957326;28;46384;-60
2022/05/11 12:38:03;;;;;;;10.87;2.90;;;26.60;20.70;;;;;;4956750;28;46466;-60
2022/05/11 12:40:32;;;;;;;7.63;3.07;;;26.60;20.30;;;;;;4955827;28;46564;-60
2022/05/11 12:42:59;;;;;;;7.67;2.50;;;26.40;21.20;;;;;;4956459;28;46581;-61
2022/05/11 12:45:41;;;;;;;5.90;2.40;;;26.40;21.90;;;;;;4957071;28;46455;-61
2022/05/11 12:48:07;;;;;;;8.23;2.97;;;26.40;20.90;;;;;;4955874;28;46496;-62
2022/05/11 12:50:37;;;;;;;4.50;2.23;;;26.20;20.70;;;;;;4957724;28;47254;-62
2022/05/11 12:53:16;;;;;;;3.73;2.13;;;26.40;20.80;;;;;;4958079;28;46398;-62
2022/05/11 12:55:45;;;;;;;3.43;1.90;;;26.40;20.00;;;;;;4956030;28;46588;-62
2022/05/11 12:58:17;;;;;;;6.03;2.63;;;26.50;20.20;;;;;;4957746;28;46006;-63
2022/05/11 13:00:43;;;;;;;6.73;2.20;;;26.40;20.40;;;;;;4956108;28;46387;-63
2022/05/11 13:03:31;;;;;;;4.87;2.53;;;26.10;19.40;;;;;;4955746;28;46407;-62
2022/05/11 13:06:10;;;;;;;9.70;2.40;;;25.90;20.50;;;;;;4958339;28;46457;-61
2022/05/11 13:08:43;;;;;;;3.13;2.10;;;26.00;21.00;;;;;;4959671;28;45897;-61
2022/05/11 13:11:12;;;;;;;4.40;2.57;;;26.10;22.30;;;;;;4960217;28;46023;-61
2022/05/11 13:13:42;;;;;;;3.23;2.03;;;26.10;21.40;;;;;;4958645;28;46324;-61
2022/05/11 13:16:25;;;;;;;5.67;2.70;;;26.20;20.90;;;;;;4961206;28;46678;-61
2022/05/11 13:19:03;;;;;;;5.00;2.20;;;26.10;20.30;;;;;;4960540;28;45884;-61
2022/05/11 13:21:35;;;;;;;8.93;2.50;;;26.20;20.00;;;;;;4959536;28;48035;-61
2022/05/11 13:24:03;;;;;;;8.43;2.33;;;26.30;20.30;;;;;;4959489;28;46522;-60
2022/05/11 13:26:45;;;;;;;3.70;2.07;;;26.50;19.90;;;;;;4960216;28;46442;-61
2022/05/11 13:29:19;;;;;;;7.20;2.60;;;26.50;19.00;;;;;;4960056;28;45996;-61
2022/05/11 13:31:59;;;;;;;5.73;2.30;;;26.60;18.90;;;;;;4960059;28;47156;-61
2022/05/11 13:34:40;;;;;;;3.60;2.20;;;26.60;19.10;;;;;;4960204;28;46426;-61
2022/05/11 13:37:23;;;;;;;4.93;2.30;;;26.60;18.80;;;;;;4959719;28;46526;-62
2022/05/11 13:39:50;;;;;;;4.00;2.17;;;26.70;18.90;;;;;;4960280;28;46060;-61
2022/05/11 13:42:26;;;;;;;6.73;2.17;;;26.90;18.60;;;;;;4958320;28;48286;-61
2022/05/11 13:44:56;;;;;;;6.63;2.47;;;26.90;18.20;;;;;;4959319;28;46559;-61
2022/05/11 13:50:27;;;;;;;7.60;2.33;;;26.80;18.50;;;;;;4956038;28;46487;-61